sensor_id;sensor_type;location;lat;lon;timestamp;pressure;altitude;pressure_sealevel;temperature;humidity
4745;BME280;2386;42.138;24.746;2022-08-01T00:00:42;99217.75;;;25.73;57.83
4745;BME280;2386;42.138;24.746;2022-08-01T00:03:09;99224.47;;;25.72;58.23
4745;BME280;2386;42.138;24.746;2022-08-01T02:22:02;99247.63;;;25.34;56.87
4745;BME280;2386;42.138;24.746;2022-08-01T03:57:34;99216.81;;;24.39;53.13
4745;BME280;2386;42.138;24.746;2022-08-01T04:00:00;99213.88;;;24.44;53.95
4745;BME280;2386;42.138;24.746;2022-08-01T04:02:27;99219.78;;;24.34;54.02
4745;BME280;2386;42.138;24.746;2022-08-01T04:04:54;99221.38;;;24.43;53.11
4745;BME280;2386;42.138;24.746;2022-08-01T04:07:28;99223.69;;;24.33;53.03
4745;BME280;2386;42.138;24.746;2022-08-01T04:09:54;99232.97;;;24.37;53.58
4745;BME280;2386;42.138;24.746;2022-08-01T04:12:20;99234.94;;;24.36;53.31
4745;BME280;2386;42.138;24.746;2022-08-01T04:14:46;99244.41;;;24.35;53.43
4745;BME280;2386;42.138;24.746;2022-08-01T04:17:12;99236.41;;;24.25;53.71
4745;BME280;2386;42.138;24.746;2022-08-01T04:19:37;99239.03;;;24.30;53.52
4745;BME280;2386;42.138;24.746;2022-08-01T04:22:04;99234.00;;;24.15;54.35
4745;BME280;2386;42.138;24.746;2022-08-01T04:24:30;99232.66;;;24.21;54.02
4745;BME280;2386;42.138;24.746;2022-08-01T04:27:00;99236.91;;;24.18;54.06
4745;BME280;2386;42.138;24.746;2022-08-01T04:29:27;99241.97;;;24.16;54.36
4745;BME280;2386;42.138;24.746;2022-08-01T04:31:56;99233.69;;;24.08;54.34
4745;BME280;2386;42.138;24.746;2022-08-01T04:34:25;99243.59;;;24.17;54.43
4745;BME280;2386;42.138;24.746;2022-08-01T04:36:55;99253.69;;;24.22;53.98
4745;BME280;2386;42.138;24.746;2022-08-01T04:39:23;99246.50;;;24.38;54.81
4745;BME280;2386;42.138;24.746;2022-08-01T04:41:53;99239.97;;;24.43;52.63
4745;BME280;2386;42.138;24.746;2022-08-01T04:44:22;99245.94;;;24.53;52.41
4745;BME280;2386;42.138;24.746;2022-08-01T04:46:48;99239.56;;;24.53;51.95
4745;BME280;2386;42.138;24.746;2022-08-01T04:49:15;99230.41;;;24.61;51.97
4745;BME280;2386;42.138;24.746;2022-08-01T04:51:55;99248.59;;;24.79;50.98
4745;BME280;2386;42.138;24.746;2022-08-01T04:54:29;99241.25;;;24.83;50.53
4745;BME280;2386;42.138;24.746;2022-08-01T04:56:56;99239.41;;;24.87;51.06
4745;BME280;2386;42.138;24.746;2022-08-01T04:59:28;99243.63;;;25.02;50.98
4745;BME280;2386;42.138;24.746;2022-08-01T05:02:14;99249.59;;;25.13;51.19
4745;BME280;2386;42.138;24.746;2022-08-01T05:04:40;99236.56;;;25.05;50.82
4745;BME280;2386;42.138;24.746;2022-08-01T05:10:28;99239.78;;;25.15;50.46
4745;BME280;2386;42.138;24.746;2022-08-01T05:12:54;99241.06;;;25.18;49.69
4745;BME280;2386;42.138;24.746;2022-08-01T05:15:19;99239.91;;;25.19;49.74
4745;BME280;2386;42.138;24.746;2022-08-01T05:21:06;99231.03;;;25.26;50.63
4745;BME280;2386;42.138;24.746;2022-08-01T05:23:32;99234.06;;;25.33;49.88
4745;BME280;2386;42.138;24.746;2022-08-01T05:25:57;99232.59;;;25.35;50.11
4745;BME280;2386;42.138;24.746;2022-08-01T05:39:05;99228.78;;;25.61;47.84
4745;BME280;2386;42.138;24.746;2022-08-01T05:41:31;99226.34;;;25.59;46.05
4745;BME280;2386;42.138;24.746;2022-08-01T06:14:59;99225.31;;;26.17;39.42
4745;BME280;2386;42.138;24.746;2022-08-01T06:17:24;99213.50;;;26.20;39.19
4745;BME280;2386;42.138;24.746;2022-08-01T06:19:50;99209.81;;;26.29;39.45
4745;BME280;2386;42.138;24.746;2022-08-01T06:22:15;99210.75;;;26.33;38.50
4745;BME280;2386;42.138;24.746;2022-08-01T06:24:41;99221.44;;;26.43;38.42
4745;BME280;2386;42.138;24.746;2022-08-01T06:30:28;99217.28;;;26.61;37.82
4745;BME280;2386;42.138;24.746;2022-08-01T06:32:57;99224.59;;;26.66;37.17
4745;BME280;2386;42.138;24.746;2022-08-01T06:35:29;99207.56;;;26.67;37.23
4745;BME280;2386;42.138;24.746;2022-08-01T06:41:17;99226.06;;;26.88;36.84
4745;BME280;2386;42.138;24.746;2022-08-01T06:43:43;99209.94;;;26.93;36.22
4745;BME280;2386;42.138;24.746;2022-08-01T06:46:12;99208.56;;;26.87;36.19
4745;BME280;2386;42.138;24.746;2022-08-01T06:51:59;99217.25;;;26.85;36.86
4745;BME280;2386;42.138;24.746;2022-08-01T06:54:25;99216.78;;;26.96;36.89
4745;BME280;2386;42.138;24.746;2022-08-01T07:03:51;99195.47;;;27.00;36.87
4745;BME280;2386;42.138;24.746;2022-08-01T07:06:17;99206.34;;;27.17;37.44
4745;BME280;2386;42.138;24.746;2022-08-01T07:08:43;99204.94;;;27.23;35.93
4745;BME280;2386;42.138;24.746;2022-08-01T07:11:21;99197.75;;;27.22;36.08
4745;BME280;2386;42.138;24.746;2022-08-01T07:13:58;99188.22;;;27.23;35.61
4745;BME280;2386;42.138;24.746;2022-08-01T07:29:22;99187.28;;;27.31;36.03
4745;BME280;2386;42.138;24.746;2022-08-01T07:31:48;99188.16;;;27.47;36.24
4745;BME280;2386;42.138;24.746;2022-08-01T07:34:15;99195.44;;;27.52;35.85
4745;BME280;2386;42.138;24.746;2022-08-01T07:36:41;99180.22;;;27.49;35.71
4745;BME280;2386;42.138;24.746;2022-08-01T07:39:08;99175.00;;;27.60;35.70
4745;BME280;2386;42.138;24.746;2022-08-01T07:41:34;99181.25;;;27.57;34.95
4745;BME280;2386;42.138;24.746;2022-08-01T07:43:59;99160.34;;;27.63;35.52
4745;BME280;2386;42.138;24.746;2022-08-01T07:46:24;99169.97;;;27.66;35.18
4745;BME280;2386;42.138;24.746;2022-08-01T07:48:50;99176.00;;;27.68;35.89
4745;BME280;2386;42.138;24.746;2022-08-01T07:51:17;99169.28;;;27.69;35.88
4745;BME280;2386;42.138;24.746;2022-08-01T07:53:43;99184.22;;;27.76;35.84
4745;BME280;2386;42.138;24.746;2022-08-01T07:56:08;99179.91;;;27.79;35.10
4745;BME280;2386;42.138;24.746;2022-08-01T07:58:34;99169.88;;;27.90;35.30
4745;BME280;2386;42.138;24.746;2022-08-01T08:01:00;99172.75;;;27.94;34.78
4745;BME280;2386;42.138;24.746;2022-08-01T08:03:25;99166.66;;;28.04;35.70
4745;BME280;2386;42.138;24.746;2022-08-01T08:05:51;99172.59;;;28.18;34.72
4745;BME280;2386;42.138;24.746;2022-08-01T08:08:17;99171.59;;;28.10;34.67
4745;BME280;2386;42.138;24.746;2022-08-01T08:10:43;99159.53;;;28.06;34.71
4745;BME280;2386;42.138;24.746;2022-08-01T08:13:09;99160.63;;;28.18;34.54
4745;BME280;2386;42.138;24.746;2022-08-01T08:15:34;99146.22;;;28.16;34.75
4745;BME280;2386;42.138;24.746;2022-08-01T08:18:00;99146.88;;;28.25;34.87
4745;BME280;2386;42.138;24.746;2022-08-01T08:20:25;99154.59;;;28.31;34.57
4745;BME280;2386;42.138;24.746;2022-08-01T08:22:53;99155.06;;;28.33;34.39
4745;BME280;2386;42.138;24.746;2022-08-01T08:25:18;99142.09;;;28.41;34.01
4745;BME280;2386;42.138;24.746;2022-08-01T08:27:48;99148.13;;;28.43;34.34
4745;BME280;2386;42.138;24.746;2022-08-01T08:30:16;99151.72;;;28.43;34.11
4745;BME280;2386;42.138;24.746;2022-08-01T08:32:43;99149.38;;;28.45;33.75
4745;BME280;2386;42.138;24.746;2022-08-01T08:35:08;99151.19;;;28.54;33.21
4745;BME280;2386;42.138;24.746;2022-08-01T08:37:35;99138.94;;;28.42;33.62
4745;BME280;2386;42.138;24.746;2022-08-01T08:40:01;99149.38;;;28.61;33.42
4745;BME280;2386;42.138;24.746;2022-08-01T08:42:27;99156.22;;;28.64;33.34
4745;BME280;2386;42.138;24.746;2022-08-01T08:44:58;99134.69;;;28.64;33.51
4745;BME280;2386;42.138;24.746;2022-08-01T08:47:25;99133.06;;;28.63;34.20
4745;BME280;2386;42.138;24.746;2022-08-01T08:50:05;99127.00;;;28.77;33.67
4745;BME280;2386;42.138;24.746;2022-08-01T08:52:35;99148.44;;;28.89;33.91
4745;BME280;2386;42.138;24.746;2022-08-01T08:55:03;99140.81;;;28.86;33.70
4745;BME280;2386;42.138;24.746;2022-08-01T08:57:28;99132.22;;;28.94;33.17
4745;BME280;2386;42.138;24.746;2022-08-01T08:59:58;99136.19;;;28.77;33.70
4745;BME280;2386;42.138;24.746;2022-08-01T09:03:20;99135.47;;;28.81;34.56
4745;BME280;2386;42.138;24.746;2022-08-01T09:06:04;99128.00;;;28.85;33.71
4745;BME280;2386;42.138;24.746;2022-08-01T09:08:29;99131.25;;;28.87;33.88
4745;BME280;2386;42.138;24.746;2022-08-01T09:10:55;99136.56;;;28.92;34.09
4745;BME280;2386;42.138;24.746;2022-08-01T09:13:20;99135.38;;;28.93;34.36
4745;BME280;2386;42.138;24.746;2022-08-01T09:15:48;99128.53;;;28.90;34.00
4745;BME280;2386;42.138;24.746;2022-08-01T09:18:39;99125.88;;;28.97;33.90
4745;BME280;2386;42.138;24.746;2022-08-01T09:23:40;99106.28;;;28.94;33.92
4745;BME280;2386;42.138;24.746;2022-08-01T09:26:18;99134.78;;;29.03;34.21
4745;BME280;2386;42.138;24.746;2022-08-01T09:28:44;99118.53;;;29.08;33.42
4745;BME280;2386;42.138;24.746;2022-08-01T09:31:12;99130.06;;;29.07;34.36
4745;BME280;2386;42.138;24.746;2022-08-01T09:33:59;99120.06;;;29.06;33.61
4745;BME280;2386;42.138;24.746;2022-08-01T09:39:12;99114.03;;;29.04;33.46
4745;BME280;2386;42.138;24.746;2022-08-01T09:41:42;99107.44;;;28.93;33.84
4745;BME280;2386;42.138;24.746;2022-08-01T09:44:08;99106.91;;;29.06;34.06
4745;BME280;2386;42.138;24.746;2022-08-01T09:46:34;99107.19;;;29.01;34.54
4745;BME280;2386;42.138;24.746;2022-08-01T09:49:04;99090.53;;;29.24;34.28
4745;BME280;2386;42.138;24.746;2022-08-01T09:51:38;99098.53;;;29.26;34.16
4745;BME280;2386;42.138;24.746;2022-08-01T09:54:05;99086.41;;;29.18;33.88
4745;BME280;2386;42.138;24.746;2022-08-01T09:56:42;99083.47;;;29.30;34.62
4745;BME280;2386;42.138;24.746;2022-08-01T09:59:08;99082.06;;;29.40;34.50
4745;BME280;2386;42.138;24.746;2022-08-01T10:01:45;99093.41;;;29.47;33.74
4745;BME280;2386;42.138;24.746;2022-08-01T10:04:20;99090.25;;;29.49;34.17
4745;BME280;2386;42.138;24.746;2022-08-01T10:06:49;99091.69;;;29.62;33.83
4745;BME280;2386;42.138;24.746;2022-08-01T10:09:30;99075.91;;;29.73;34.08
4745;BME280;2386;42.138;24.746;2022-08-01T10:12:33;99093.13;;;29.75;33.48
4745;BME280;2386;42.138;24.746;2022-08-01T10:14:59;99090.09;;;29.61;33.55
4745;BME280;2386;42.138;24.746;2022-08-01T10:17:31;99068.09;;;29.59;33.85
4745;BME280;2386;42.138;24.746;2022-08-01T10:20:01;99079.47;;;29.70;33.26
4745;BME280;2386;42.138;24.746;2022-08-01T10:22:27;99074.28;;;29.72;33.31
4745;BME280;2386;42.138;24.746;2022-08-01T10:24:56;99076.09;;;29.84;33.41
4745;BME280;2386;42.138;24.746;2022-08-01T10:27:23;99084.38;;;29.99;33.48
4745;BME280;2386;42.138;24.746;2022-08-01T10:29:59;99074.50;;;30.05;33.36
4745;BME280;2386;42.138;24.746;2022-08-01T10:32:33;99065.81;;;30.11;33.17
4745;BME280;2386;42.138;24.746;2022-08-01T10:35:02;99059.72;;;30.05;32.84
4745;BME280;2386;42.138;24.746;2022-08-01T10:37:35;99088.00;;;30.23;32.94
4745;BME280;2386;42.138;24.746;2022-08-01T10:40:01;99073.13;;;30.19;33.15
4745;BME280;2386;42.138;24.746;2022-08-01T10:42:27;99068.97;;;30.09;33.24
4745;BME280;2386;42.138;24.746;2022-08-01T10:50:24;99081.00;;;30.36;32.87
4745;BME280;2386;42.138;24.746;2022-08-01T10:58:12;99066.50;;;30.83;32.37
4745;BME280;2386;42.138;24.746;2022-08-01T11:00:38;99079.03;;;30.93;32.33
4745;BME280;2386;42.138;24.746;2022-08-01T11:03:32;99073.25;;;30.79;32.04
4745;BME280;2386;42.138;24.746;2022-08-01T11:05:57;99077.38;;;30.88;32.34
4745;BME280;2386;42.138;24.746;2022-08-01T11:08:23;99063.09;;;30.97;32.33
4745;BME280;2386;42.138;24.746;2022-08-01T11:11:00;99069.44;;;30.94;31.60
4745;BME280;2386;42.138;24.746;2022-08-01T11:16:39;99055.66;;;31.12;31.69
4745;BME280;2386;42.138;24.746;2022-08-01T11:19:07;99052.13;;;31.15;31.38
4745;BME280;2386;42.138;24.746;2022-08-01T11:27:21;99045.72;;;31.14;32.06
4745;BME280;2386;42.138;24.746;2022-08-01T11:32:48;99056.28;;;31.31;32.14
4745;BME280;2386;42.138;24.746;2022-08-01T11:35:14;99049.03;;;31.27;32.06
4745;BME280;2386;42.138;24.746;2022-08-01T11:37:40;99052.34;;;31.36;31.78
4745;BME280;2386;42.138;24.746;2022-08-01T11:40:16;99043.56;;;31.37;31.07
4745;BME280;2386;42.138;24.746;2022-08-01T11:42:42;99051.19;;;31.41;31.58
4745;BME280;2386;42.138;24.746;2022-08-01T11:45:09;99058.84;;;31.44;31.91
4745;BME280;2386;42.138;24.746;2022-08-01T11:47:49;99034.88;;;31.50;31.13
4745;BME280;2386;42.138;24.746;2022-08-01T11:50:34;99039.63;;;31.46;31.01
4745;BME280;2386;42.138;24.746;2022-08-01T11:53:05;99061.38;;;31.56;30.92
4745;BME280;2386;42.138;24.746;2022-08-01T11:55:35;99060.53;;;31.52;31.07
4745;BME280;2386;42.138;24.746;2022-08-01T11:58:06;99039.25;;;31.47;30.84
4745;BME280;2386;42.138;24.746;2022-08-01T12:00:32;99040.34;;;31.73;30.92
4745;BME280;2386;42.138;24.746;2022-08-01T12:06:30;99034.00;;;32.30;29.78
4745;BME280;2386;42.138;24.746;2022-08-01T12:09:14;99019.53;;;32.94;29.09
4745;BME280;2386;42.138;24.746;2022-08-01T12:11:40;99036.84;;;35.02;27.50
4745;BME280;2386;42.138;24.746;2022-08-01T12:14:05;99029.13;;;37.37;23.78
4745;BME280;2386;42.138;24.746;2022-08-01T12:16:32;99041.66;;;39.23;21.33
4745;BME280;2386;42.138;24.746;2022-08-01T12:18:58;99040.19;;;40.52;20.24
4745;BME280;2386;42.138;24.746;2022-08-01T12:21:25;99049.56;;;40.81;20.12
4745;BME280;2386;42.138;24.746;2022-08-01T12:24:01;99043.66;;;41.30;19.57
4745;BME280;2386;42.138;24.746;2022-08-01T12:26:40;99039.00;;;42.81;17.81
4745;BME280;2386;42.138;24.746;2022-08-01T12:29:06;99035.56;;;44.10;17.05
4745;BME280;2386;42.138;24.746;2022-08-01T12:31:33;99049.09;;;43.39;17.87
4745;BME280;2386;42.138;24.746;2022-08-01T12:34:35;99025.53;;;43.56;17.54
4745;BME280;2386;42.138;24.746;2022-08-01T12:37:01;99043.41;;;44.37;16.85
4745;BME280;2386;42.138;24.746;2022-08-01T12:39:34;99031.75;;;44.04;16.98
4745;BME280;2386;42.138;24.746;2022-08-01T12:42:00;99036.84;;;43.07;17.16
4745;BME280;2386;42.138;24.746;2022-08-01T12:44:29;99030.91;;;43.54;17.81
4745;BME280;2386;42.138;24.746;2022-08-01T12:46:55;99028.44;;;45.15;16.26
4745;BME280;2386;42.138;24.746;2022-08-01T12:49:26;99026.72;;;44.27;17.06
4745;BME280;2386;42.138;24.746;2022-08-01T12:51:53;99041.03;;;44.36;16.68
4745;BME280;2386;42.138;24.746;2022-08-01T12:54:19;99021.66;;;44.85;16.15
4745;BME280;2386;42.138;24.746;2022-08-01T12:56:44;99022.25;;;45.08;16.14
4745;BME280;2386;42.138;24.746;2022-08-01T12:59:24;99014.66;;;44.96;16.24
4745;BME280;2386;42.138;24.746;2022-08-01T13:01:51;99023.34;;;45.71;15.54
4745;BME280;2386;42.138;24.746;2022-08-01T13:04:18;99020.69;;;45.58;15.89
4745;BME280;2386;42.138;24.746;2022-08-01T13:06:44;99017.06;;;44.51;16.37
4745;BME280;2386;42.138;24.746;2022-08-01T13:09:10;99014.78;;;45.95;15.05
4745;BME280;2386;42.138;24.746;2022-08-01T13:11:37;99019.25;;;46.97;14.92
4745;BME280;2386;42.138;24.746;2022-08-01T13:14:02;99013.59;;;47.02;14.74
4745;BME280;2386;42.138;24.746;2022-08-01T13:16:28;99022.88;;;46.68;15.45
4745;BME280;2386;42.138;24.746;2022-08-01T13:18:56;99020.28;;;47.38;14.28
4745;BME280;2386;42.138;24.746;2022-08-01T13:21:29;99018.00;;;47.13;14.02
4745;BME280;2386;42.138;24.746;2022-08-01T13:24:10;99028.09;;;48.02;14.22
4745;BME280;2386;42.138;24.746;2022-08-01T13:26:48;99009.56;;;47.38;14.33
4745;BME280;2386;42.138;24.746;2022-08-01T13:29:18;99008.88;;;47.43;15.10
4745;BME280;2386;42.138;24.746;2022-08-01T13:39:45;99003.38;;;47.60;14.39
4745;BME280;2386;42.138;24.746;2022-08-01T13:42:12;98997.78;;;47.86;13.87
4745;BME280;2386;42.138;24.746;2022-08-01T13:44:38;99000.94;;;47.24;14.49
4745;BME280;2386;42.138;24.746;2022-08-01T13:47:05;98999.06;;;47.50;14.45
4745;BME280;2386;42.138;24.746;2022-08-01T13:57:14;98998.59;;;47.07;14.46
4745;BME280;2386;42.138;24.746;2022-08-01T13:59:41;98994.69;;;46.96;14.63
4745;BME280;2386;42.138;24.746;2022-08-01T14:02:07;98995.41;;;46.52;14.66
4745;BME280;2386;42.138;24.746;2022-08-01T14:04:32;98998.75;;;47.04;14.98
4745;BME280;2386;42.138;24.746;2022-08-01T14:23:48;98994.50;;;45.74;15.02
4745;BME280;2386;42.138;24.746;2022-08-01T14:26:17;98990.16;;;46.74;14.62
4745;BME280;2386;42.138;24.746;2022-08-01T14:28:43;99001.41;;;48.01;14.35
4745;BME280;2386;42.138;24.746;2022-08-01T14:31:11;99005.13;;;48.48;13.65
4745;BME280;2386;42.138;24.746;2022-08-01T14:33:37;99000.66;;;48.67;13.92
4745;BME280;2386;42.138;24.746;2022-08-01T14:36:04;99000.84;;;48.18;14.01
4745;BME280;2386;42.138;24.746;2022-08-01T14:38:30;98997.22;;;48.02;13.41
4745;BME280;2386;42.138;24.746;2022-08-01T14:40:56;99012.38;;;49.10;13.05
4745;BME280;2386;42.138;24.746;2022-08-01T14:43:21;99005.19;;;48.28;14.13
4745;BME280;2386;42.138;24.746;2022-08-01T14:45:48;99007.63;;;49.07;13.43
4745;BME280;2386;42.138;24.746;2022-08-01T14:48:17;99005.25;;;49.06;13.39
4745;BME280;2386;42.138;24.746;2022-08-01T14:50:43;98999.63;;;46.95;13.87
4745;BME280;2386;42.138;24.746;2022-08-01T14:53:09;99003.69;;;46.35;14.99
4745;BME280;2386;42.138;24.746;2022-08-01T14:55:55;98995.25;;;47.59;14.95
4745;BME280;2386;42.138;24.746;2022-08-01T15:19:30;98997.00;;;44.70;16.49
4745;BME280;2386;42.138;24.746;2022-08-01T15:21:56;98999.19;;;43.62;17.04
4745;BME280;2386;42.138;24.746;2022-08-01T15:24:21;99006.00;;;41.10;19.34
4745;BME280;2386;42.138;24.746;2022-08-01T15:26:46;99004.47;;;40.80;20.00
4745;BME280;2386;42.138;24.746;2022-08-01T15:29:12;98995.91;;;38.81;21.17
4745;BME280;2386;42.138;24.746;2022-08-01T15:31:38;99002.97;;;38.73;21.91
4745;BME280;2386;42.138;24.746;2022-08-01T15:34:04;98994.91;;;38.28;22.41
4745;BME280;2386;42.138;24.746;2022-08-01T15:36:31;99008.28;;;37.24;22.70
4745;BME280;2386;42.138;24.746;2022-08-01T15:38:56;99000.19;;;36.95;23.51
4745;BME280;2386;42.138;24.746;2022-08-01T15:41:21;99004.41;;;36.42;23.42
4745;BME280;2386;42.138;24.746;2022-08-01T15:44:07;99003.75;;;36.31;24.45
4745;BME280;2386;42.138;24.746;2022-08-01T15:46:36;98997.44;;;36.13;23.91
4745;BME280;2386;42.138;24.746;2022-08-01T15:49:04;98993.50;;;35.51;24.77
4745;BME280;2386;42.138;24.746;2022-08-01T15:51:31;98993.13;;;35.46;25.31
4745;BME280;2386;42.138;24.746;2022-08-01T15:53:57;99001.75;;;35.14;24.91
4745;BME280;2386;42.138;24.746;2022-08-01T15:56:23;98983.78;;;34.79;25.70
4745;BME280;2386;42.138;24.746;2022-08-01T15:58:49;98999.91;;;34.86;26.12
4745;BME280;2386;42.138;24.746;2022-08-01T16:01:15;99003.53;;;34.72;26.34
4745;BME280;2386;42.138;24.746;2022-08-01T16:03:40;99003.56;;;34.62;26.78
4745;BME280;2386;42.138;24.746;2022-08-01T16:06:06;98987.94;;;34.36;26.73
4745;BME280;2386;42.138;24.746;2022-08-01T16:08:32;98993.16;;;34.23;26.63
4745;BME280;2386;42.138;24.746;2022-08-01T16:10:59;99012.94;;;33.94;27.15
4745;BME280;2386;42.138;24.746;2022-08-01T16:13:25;99006.47;;;33.69;27.44
4745;BME280;2386;42.138;24.746;2022-08-01T16:15:50;98998.81;;;33.73;27.79
4745;BME280;2386;42.138;24.746;2022-08-01T16:18:16;99000.00;;;33.51;28.33
4745;BME280;2386;42.138;24.746;2022-08-01T16:20:42;98998.00;;;33.41;28.39
4745;BME280;2386;42.138;24.746;2022-08-01T16:23:08;99011.25;;;33.37;29.20
4745;BME280;2386;42.138;24.746;2022-08-01T16:25:33;99009.63;;;33.43;29.21
4745;BME280;2386;42.138;24.746;2022-08-01T16:28:09;99009.56;;;33.14;28.86
4745;BME280;2386;42.138;24.746;2022-08-01T16:30:37;99008.16;;;32.73;29.25
4745;BME280;2386;42.138;24.746;2022-08-01T16:36:26;99017.13;;;32.96;30.07
4745;BME280;2386;42.138;24.746;2022-08-01T16:38:52;99025.97;;;32.98;30.93
4745;BME280;2386;42.138;24.746;2022-08-01T16:41:17;99012.34;;;33.07;30.52
4745;BME280;2386;42.138;24.746;2022-08-01T16:43:43;99021.97;;;33.06;29.04
4745;BME280;2386;42.138;24.746;2022-08-01T16:46:08;99026.41;;;33.11;31.02
4745;BME280;2386;42.138;24.746;2022-08-01T16:51:56;99019.13;;;32.99;31.57
4745;BME280;2386;42.138;24.746;2022-08-01T16:54:22;99027.19;;;33.01;30.41
4745;BME280;2386;42.138;24.746;2022-08-01T16:56:47;99023.13;;;32.91;29.83
4745;BME280;2386;42.138;24.746;2022-08-01T16:59:12;99023.41;;;32.75;30.21
4745;BME280;2386;42.138;24.746;2022-08-01T17:01:38;99025.00;;;32.65;31.07
4745;BME280;2386;42.138;24.746;2022-08-01T17:04:05;99022.59;;;32.67;30.60
4745;BME280;2386;42.138;24.746;2022-08-01T17:06:30;99037.44;;;32.68;29.67
4745;BME280;2386;42.138;24.746;2022-08-01T17:08:56;99031.00;;;32.60;30.88
4745;BME280;2386;42.138;24.746;2022-08-01T17:11:22;99030.56;;;32.55;30.98
4745;BME280;2386;42.138;24.746;2022-08-01T17:13:47;99032.50;;;32.47;30.47
4745;BME280;2386;42.138;24.746;2022-08-01T17:16:13;99038.91;;;32.44;30.70
4745;BME280;2386;42.138;24.746;2022-08-01T17:18:38;99050.06;;;32.33;30.36
4745;BME280;2386;42.138;24.746;2022-08-01T17:21:04;99027.84;;;32.14;30.48
4745;BME280;2386;42.138;24.746;2022-08-01T17:23:29;99039.00;;;32.07;30.55
4745;BME280;2386;42.138;24.746;2022-08-01T17:25:56;99045.75;;;31.99;30.35
4745;BME280;2386;42.138;24.746;2022-08-01T17:28:26;99046.78;;;31.77;31.54
4745;BME280;2386;42.138;24.746;2022-08-01T17:30:52;99047.53;;;31.70;31.42
4745;BME280;2386;42.138;24.746;2022-08-01T17:33:18;99042.19;;;31.61;32.56
4745;BME280;2386;42.138;24.746;2022-08-01T17:35:43;99049.38;;;31.59;31.00
4745;BME280;2386;42.138;24.746;2022-08-01T17:38:09;99044.41;;;31.42;31.59
4745;BME280;2386;42.138;24.746;2022-08-01T17:40:34;99051.66;;;31.46;31.48
4745;BME280;2386;42.138;24.746;2022-08-01T17:43:00;99059.25;;;31.46;32.81
4745;BME280;2386;42.138;24.746;2022-08-01T17:45:25;99062.31;;;31.33;33.04
4745;BME280;2386;42.138;24.746;2022-08-01T17:47:50;99050.97;;;31.19;32.53
4745;BME280;2386;42.138;24.746;2022-08-01T17:50:16;99063.25;;;31.11;32.83
4745;BME280;2386;42.138;24.746;2022-08-01T17:53:04;99078.59;;;31.17;32.35
4745;BME280;2386;42.138;24.746;2022-08-01T17:55:29;99078.47;;;31.10;32.44
4745;BME280;2386;42.138;24.746;2022-08-01T17:57:54;99081.78;;;31.16;31.91
4745;BME280;2386;42.138;24.746;2022-08-01T18:00:20;99096.88;;;31.11;31.65
4745;BME280;2386;42.138;24.746;2022-08-01T18:02:45;99093.22;;;31.07;31.72
4745;BME280;2386;42.138;24.746;2022-08-01T18:05:11;99098.00;;;31.03;32.07
4745;BME280;2386;42.138;24.746;2022-08-01T18:07:36;99102.72;;;30.99;32.02
4745;BME280;2386;42.138;24.746;2022-08-01T18:10:01;99094.94;;;30.85;32.81
4745;BME280;2386;42.138;24.746;2022-08-01T18:12:27;99106.09;;;30.82;32.43
4745;BME280;2386;42.138;24.746;2022-08-01T18:14:53;99103.56;;;30.73;32.45
4745;BME280;2386;42.138;24.746;2022-08-01T18:17:19;99121.63;;;30.76;32.77
4745;BME280;2386;42.138;24.746;2022-08-01T18:19:44;99099.47;;;30.67;32.42
4745;BME280;2386;42.138;24.746;2022-08-01T18:22:09;99112.13;;;30.57;32.99
4745;BME280;2386;42.138;24.746;2022-08-01T18:24:36;99129.03;;;30.64;33.48
4745;BME280;2386;42.138;24.746;2022-08-01T18:27:02;99121.56;;;30.49;32.60
4745;BME280;2386;42.138;24.746;2022-08-01T18:29:27;99128.47;;;30.55;33.09
4745;BME280;2386;42.138;24.746;2022-08-01T18:31:53;99130.31;;;30.44;33.75
4745;BME280;2386;42.138;24.746;2022-08-01T18:34:21;99131.81;;;30.38;34.50
4745;BME280;2386;42.138;24.746;2022-08-01T18:36:47;99149.50;;;30.42;33.49
4745;BME280;2386;42.138;24.746;2022-08-01T18:39:12;99144.94;;;30.34;33.79
4745;BME280;2386;42.138;24.746;2022-08-01T18:41:38;99142.03;;;30.27;33.34
4745;BME280;2386;42.138;24.746;2022-08-01T18:44:04;99153.97;;;30.24;33.27
4745;BME280;2386;42.138;24.746;2022-08-01T18:46:30;99153.97;;;30.24;33.77
4745;BME280;2386;42.138;24.746;2022-08-01T18:48:55;99140.16;;;30.12;34.00
4745;BME280;2386;42.138;24.746;2022-08-01T18:51:21;99152.16;;;30.12;33.32
4745;BME280;2386;42.138;24.746;2022-08-01T18:53:46;99155.66;;;30.05;33.38
4745;BME280;2386;42.138;24.746;2022-08-01T18:56:12;99154.03;;;30.04;33.53
4745;BME280;2386;42.138;24.746;2022-08-01T18:58:40;99169.69;;;30.09;34.03
4745;BME280;2386;42.138;24.746;2022-08-01T19:01:14;99159.84;;;29.96;33.88
4745;BME280;2386;42.138;24.746;2022-08-01T19:04:12;99166.09;;;29.89;34.14
4745;BME280;2386;42.138;24.746;2022-08-01T23:53:35;99209.75;;;26.98;43.74
4745;BME280;2386;42.138;24.746;2022-08-01T23:56:01;99217.06;;;27.03;43.55
4745;BME280;2386;42.138;24.746;2022-08-01T23:58:26;99220.06;;;26.98;44.35
